createdAt,value
2018-08-20T00:01:31.625Z,22.50
2018-08-20T00:04:05.076Z,22.60
2018-08-20T00:06:45.601Z,22.50
2018-08-20T00:09:13.981Z,22.40
2018-08-20T00:11:42.477Z,22.30
2018-08-20T00:14:10.899Z,22.20
2018-08-20T00:16:39.310Z,22.20
2018-08-20T00:19:11.948Z,22.10
2018-08-20T00:21:40.393Z,22.00
2018-08-20T00:24:08.743Z,21.90
2018-08-20T00:26:37.147Z,21.90
2018-08-20T00:29:06.054Z,22.10
2018-08-20T00:31:34.759Z,22.20
2018-08-20T00:34:03.114Z,22.20
2018-08-20T00:36:31.458Z,22.10
2018-08-20T00:38:59.759Z,21.90
2018-08-20T00:41:28.111Z,22.00
2018-08-20T00:43:56.396Z,21.90
2018-08-20T00:46:24.777Z,21.90
2018-08-20T00:48:53.261Z,21.90
2018-08-20T00:51:21.581Z,21.90
2018-08-20T00:53:49.879Z,21.90
2018-08-20T00:56:18.216Z,21.90
2018-08-20T00:58:46.614Z,21.80
2018-08-20T01:01:14.998Z,21.80
2018-08-20T01:03:43.406Z,21.70
2018-08-20T01:06:11.731Z,21.60
2018-08-20T01:08:40.142Z,21.60
2018-08-20T01:11:08.597Z,21.70
2018-08-20T01:13:36.993Z,21.80
2018-08-20T01:16:05.337Z,21.70
2018-08-20T01:18:33.743Z,21.80
2018-08-20T01:21:02.125Z,21.70
2018-08-20T01:23:30.505Z,21.50
2018-08-20T01:25:58.843Z,21.50
2018-08-20T01:28:27.191Z,21.50
2018-08-20T01:30:55.509Z,21.60
2018-08-20T01:33:23.866Z,21.60
2018-08-20T01:35:52.224Z,21.70
2018-08-20T01:38:20.514Z,21.60
2018-08-20T01:40:49.125Z,21.50
2018-08-20T01:43:17.439Z,21.50
2018-08-20T01:45:45.830Z,21.30
2018-08-20T01:48:14.341Z,21.40
2018-08-20T01:50:42.978Z,21.40
2018-08-20T01:53:11.286Z,21.40
2018-08-20T01:55:39.615Z,21.40
2018-08-20T01:58:07.965Z,21.40
2018-08-20T02:00:36.332Z,21.50
2018-08-20T02:03:04.915Z,21.40
2018-08-20T02:05:33.313Z,21.40
2018-08-20T02:08:01.923Z,21.30
2018-08-20T02:10:30.564Z,21.30
2018-08-20T02:12:58.910Z,21.30
2018-08-20T02:15:27.235Z,21.30
2018-08-20T02:17:55.850Z,21.30
2018-08-20T02:20:24.237Z,21.20
2018-08-20T02:22:52.610Z,21.20
2018-08-20T02:25:20.953Z,21.20
2018-08-20T02:27:49.289Z,21.30
2018-08-20T02:30:17.585Z,21.30
2018-08-20T02:32:45.910Z,21.10
2018-08-20T02:35:14.224Z,20.90
2018-08-20T02:37:45.347Z,20.80
2018-08-20T02:40:14.749Z,20.90
2018-08-20T02:42:43.106Z,21.00
2018-08-20T02:45:14.820Z,20.90
2018-08-20T02:47:43.829Z,21.00
2018-08-20T02:50:12.946Z,21.00
2018-08-20T02:52:42.243Z,20.80
2018-08-20T02:55:10.651Z,20.90
2018-08-20T02:57:39.234Z,20.90
2018-08-20T03:00:09.573Z,20.90
2018-08-20T03:02:37.934Z,20.80
2018-08-20T03:05:06.749Z,20.70
2018-08-20T03:07:35.075Z,20.70
2018-08-20T03:10:03.545Z,20.70
2018-08-20T03:12:31.884Z,20.80
2018-08-20T03:15:00.560Z,20.70
2018-08-20T03:17:28.917Z,20.70
2018-08-20T03:19:57.359Z,20.60
2018-08-20T03:22:25.686Z,20.60
2018-08-20T03:24:54.122Z,20.70
2018-08-20T03:27:22.497Z,20.60
2018-08-20T03:29:50.859Z,20.60
2018-08-20T03:32:19.206Z,20.70
2018-08-20T03:34:47.543Z,20.60
2018-08-20T03:37:15.911Z,20.60
2018-08-20T03:39:44.394Z,20.50
2018-08-20T03:42:12.757Z,20.50
2018-08-20T03:44:41.123Z,20.60
2018-08-20T03:47:09.538Z,20.50
2018-08-20T03:49:38.703Z,20.70
2018-08-20T03:52:07.071Z,20.80
2018-08-20T03:54:35.405Z,20.80
2018-08-20T03:57:03.852Z,20.60
2018-08-20T03:59:36.615Z,20.50
2018-08-20T04:02:06.077Z,20.50
2018-08-20T04:04:34.456Z,20.70
2018-08-20T04:07:04.146Z,20.50
2018-08-20T04:09:32.887Z,20.30
2018-08-20T04:12:02.291Z,20.50
2018-08-20T04:14:30.666Z,20.40
2018-08-20T04:16:59.602Z,20.30
2018-08-20T04:19:28.514Z,20.30
2018-08-20T04:21:56.930Z,20.10
2018-08-20T04:24:25.351Z,20.20
2018-08-20T04:26:53.802Z,20.30
2018-08-20T04:29:22.418Z,20.40
2018-08-20T04:31:50.750Z,20.40
2018-08-20T04:34:19.078Z,20.40
2018-08-20T04:36:47.447Z,20.50
2018-08-20T04:39:15.806Z,20.40
2018-08-20T04:41:44.121Z,20.40
2018-08-20T04:44:12.473Z,20.30
2018-08-20T04:46:40.803Z,20.20
2018-08-20T04:49:09.138Z,20.10
2018-08-20T04:51:37.483Z,20.20
2018-08-20T04:54:05.919Z,20.20
2018-08-20T04:56:34.238Z,20.00
2018-08-20T04:59:02.612Z,20.00
2018-08-20T05:01:30.955Z,20.00
2018-08-20T05:03:59.475Z,20.20
2018-08-20T05:06:27.761Z,20.20
2018-08-20T05:08:56.240Z,20.30
2018-08-20T05:11:24.588Z,20.50
2018-08-20T05:13:52.920Z,20.40
2018-08-20T05:16:21.419Z,20.40
2018-08-20T05:18:49.742Z,20.30
2018-08-20T05:21:18.101Z,20.20
2018-08-20T05:23:46.454Z,20.10
2018-08-20T05:26:14.807Z,20.20
2018-08-20T05:28:43.143Z,20.30
2018-08-20T05:31:11.488Z,20.50
2018-08-20T05:33:39.871Z,20.90
2018-08-20T05:36:08.349Z,21.50
2018-08-20T05:38:36.718Z,22.30
2018-08-20T05:41:05.069Z,22.90
2018-08-20T05:43:33.470Z,23.70
2018-08-20T05:46:01.919Z,23.70
2018-08-20T05:48:30.297Z,24.30
2018-08-20T05:50:58.701Z,24.90
2018-08-20T05:53:27.068Z,24.70
2018-08-20T05:55:55.376Z,25.00
2018-08-20T05:58:23.819Z,25.10
2018-08-20T06:00:52.229Z,25.10
2018-08-20T06:03:20.815Z,25.40
2018-08-20T06:05:49.149Z,25.10
2018-08-20T06:08:17.520Z,25.00
2018-08-20T06:10:45.894Z,25.30
2018-08-20T06:13:14.333Z,25.60
2018-08-20T06:15:42.726Z,26.00
2018-08-20T06:18:11.466Z,26.10
2018-08-20T06:20:39.957Z,26.60
2018-08-20T06:23:08.362Z,26.50
2018-08-20T06:25:36.699Z,26.60
2018-08-20T06:28:05.078Z,26.60
2018-08-20T06:30:33.437Z,26.40
2018-08-20T06:33:01.814Z,25.60
2018-08-20T06:35:30.143Z,24.80
2018-08-20T06:37:58.599Z,24.40
2018-08-20T06:40:26.957Z,23.90
2018-08-20T06:42:55.282Z,23.60
2018-08-20T06:45:23.771Z,23.50
2018-08-20T06:47:52.171Z,23.70
2018-08-20T06:50:20.578Z,24.00
2018-08-20T06:52:48.922Z,24.40
2018-08-20T06:55:17.326Z,24.90
2018-08-20T06:57:46.577Z,25.00
2018-08-20T07:00:15.289Z,24.80
2018-08-20T07:02:43.682Z,24.90
2018-08-20T07:05:12.254Z,24.60
2018-08-20T07:07:41.096Z,25.30
2018-08-20T07:10:12.338Z,25.60
2018-08-20T07:12:40.865Z,25.70
2018-08-20T07:15:11.337Z,25.90
2018-08-20T07:17:39.771Z,25.80
2018-08-20T07:20:09.967Z,25.40
2018-08-20T07:22:38.382Z,25.30
2018-08-20T07:25:07.943Z,25.50
2018-08-20T07:27:37.256Z,25.20
2018-08-20T07:30:07.973Z,25.20
2018-08-20T07:32:36.418Z,25.00
2018-08-20T07:35:05.819Z,24.70
2018-08-20T07:37:34.220Z,24.70
2018-08-20T07:40:02.667Z,24.60
2018-08-20T07:42:31.172Z,25.20
2018-08-20T07:44:59.638Z,25.50
2018-08-20T07:47:28.234Z,25.70
2018-08-20T07:49:56.698Z,26.10
2018-08-20T07:52:25.122Z,26.60
2018-08-20T07:54:53.571Z,26.30
2018-08-20T07:57:21.995Z,26.40
2018-08-20T07:59:50.348Z,26.40
2018-08-20T08:02:18.754Z,26.40
2018-08-20T08:04:47.109Z,26.30
2018-08-20T08:07:15.606Z,25.90
2018-08-20T08:09:44.050Z,26.00
2018-08-20T08:12:12.440Z,26.10
2018-08-20T08:14:40.842Z,26.50
2018-08-20T08:17:09.279Z,26.40
2018-08-20T08:19:37.752Z,26.50
2018-08-20T08:22:06.143Z,26.40
2018-08-20T08:24:34.579Z,26.20
2018-08-20T08:27:03.089Z,26.00
2018-08-20T08:29:31.592Z,25.90
2018-08-20T08:32:00.021Z,25.90
2018-08-20T08:34:28.437Z,25.70
2018-08-20T08:36:56.924Z,25.40
2018-08-20T08:39:25.347Z,25.40
2018-08-20T08:41:53.738Z,25.00
2018-08-20T08:44:22.123Z,24.90
2018-08-20T08:46:50.565Z,24.60
2018-08-20T08:49:19.029Z,24.70
2018-08-20T08:51:47.811Z,24.60
2018-08-20T08:54:16.239Z,24.50
2018-08-20T08:56:44.811Z,24.40
2018-08-20T08:59:13.832Z,24.50
2018-08-20T09:01:42.344Z,24.60
2018-08-20T09:04:10.916Z,24.70
2018-08-20T09:06:39.373Z,24.60
2018-08-20T09:09:08.112Z,24.60
2018-08-20T09:11:36.639Z,24.80
2018-08-20T09:14:05.111Z,24.90
2018-08-20T09:16:33.514Z,25.00
2018-08-20T09:19:01.889Z,25.50
2018-08-20T09:21:30.285Z,26.60
2018-08-20T09:23:58.718Z,27.50
2018-08-20T09:26:27.145Z,28.20
2018-08-20T09:28:55.517Z,27.90
2018-08-20T09:31:23.946Z,27.90
2018-08-20T09:33:52.652Z,27.40
2018-08-20T09:36:21.773Z,28.10
2018-08-20T09:38:50.686Z,28.60
2018-08-20T09:41:19.149Z,29.00
2018-08-20T09:43:47.578Z,29.70
2018-08-20T09:46:15.959Z,29.40
2018-08-20T09:48:44.348Z,29.50
2018-08-20T09:51:12.818Z,29.00
2018-08-20T09:53:41.204Z,28.80
2018-08-20T09:56:09.962Z,29.80
2018-08-20T09:58:38.372Z,32.00
2018-08-20T10:01:06.803Z,32.00
2018-08-20T10:03:35.336Z,31.00
2018-08-20T10:06:03.718Z,30.60
2018-08-20T10:08:32.312Z,31.20
2018-08-20T10:11:00.720Z,32.20
2018-08-20T10:13:29.064Z,33.10
2018-08-20T10:15:57.457Z,33.30
2018-08-20T10:18:25.891Z,33.10
2018-08-20T10:20:54.240Z,32.50
2018-08-20T10:23:22.651Z,32.10
2018-08-20T10:25:51.205Z,30.90
2018-08-20T10:28:19.632Z,31.10
2018-08-20T10:30:48.035Z,31.70
2018-08-20T10:33:16.471Z,32.00
2018-08-20T10:35:44.843Z,32.00
2018-08-20T10:38:13.298Z,32.30
2018-08-20T10:40:41.693Z,32.40
2018-08-20T10:43:10.059Z,32.60
2018-08-20T10:45:43.896Z,32.20
2018-08-20T10:48:12.286Z,30.60
2018-08-20T10:50:40.682Z,29.70
2018-08-20T10:53:09.092Z,29.40
2018-08-20T10:55:37.512Z,28.80
2018-08-20T10:58:06.034Z,28.10
2018-08-20T11:00:34.468Z,29.00
2018-08-20T11:03:02.846Z,29.30
2018-08-20T11:05:31.234Z,30.00
2018-08-20T11:07:59.680Z,31.10
2018-08-20T11:10:28.109Z,31.20
2018-08-20T11:12:56.554Z,30.70
2018-08-20T11:15:24.914Z,29.60
2018-08-20T11:17:53.385Z,30.30
2018-08-20T11:20:21.738Z,31.10
2018-08-20T11:22:50.592Z,31.70
2018-08-20T11:25:19.064Z,31.70
2018-08-20T11:27:47.541Z,31.00
2018-08-20T11:30:15.964Z,30.40
2018-08-20T11:32:44.344Z,30.60
2018-08-20T11:35:12.997Z,30.20
2018-08-20T11:37:41.686Z,30.50
2018-08-20T11:40:10.078Z,30.30
2018-08-20T11:42:38.509Z,30.20
2018-08-20T11:45:09.090Z,29.70
2018-08-20T11:47:37.522Z,28.80
2018-08-20T11:50:06.103Z,29.00
2018-08-20T11:52:36.082Z,28.70
2018-08-20T11:55:04.714Z,28.80
2018-08-20T11:57:33.875Z,28.40
2018-08-20T12:00:02.343Z,28.70
2018-08-20T12:02:31.174Z,28.30
2018-08-20T12:04:59.571Z,28.20
2018-08-20T12:07:28.048Z,28.50
2018-08-20T12:09:56.381Z,29.10
2018-08-20T12:12:24.685Z,30.00
2018-08-20T12:14:53.087Z,30.30
2018-08-20T12:17:21.614Z,30.60
2018-08-20T12:19:50.381Z,31.30
2018-08-20T12:22:18.763Z,31.50
2018-08-20T12:24:47.106Z,31.20
2018-08-20T12:27:16.211Z,30.70
2018-08-20T12:29:44.569Z,30.20
2018-08-20T12:32:12.934Z,29.20
2018-08-20T12:34:41.527Z,28.60
2018-08-20T12:37:10.043Z,28.90
2018-08-20T12:39:38.451Z,29.60
2018-08-20T12:42:07.211Z,30.20
2018-08-20T12:44:36.182Z,31.40
2018-08-20T12:47:04.650Z,31.90
2018-08-20T12:49:33.000Z,32.30
2018-08-20T12:52:01.420Z,31.80
2018-08-20T12:54:29.718Z,31.20
2018-08-20T12:56:58.502Z,31.00
2018-08-20T12:59:27.397Z,30.50
2018-08-20T13:01:56.363Z,30.10
2018-08-20T13:04:24.669Z,29.90
2018-08-20T13:06:52.999Z,29.70
2018-08-20T13:09:21.512Z,29.70
2018-08-20T13:11:49.917Z,29.30
2018-08-20T13:14:18.345Z,29.00
2018-08-20T13:16:46.727Z,28.70
2018-08-20T13:19:15.085Z,28.40
2018-08-20T13:21:43.521Z,28.30
2018-08-20T13:24:11.963Z,28.30
2018-08-20T13:26:40.321Z,28.30
2018-08-20T13:29:08.662Z,28.20
2018-08-20T13:31:37.687Z,28.20
2018-08-20T13:34:06.764Z,28.30
2018-08-20T13:36:35.263Z,28.10
2018-08-20T13:39:04.748Z,28.30
2018-08-20T13:41:33.183Z,28.30
2018-08-20T13:44:02.308Z,28.30
2018-08-20T13:46:30.683Z,28.30
2018-08-20T13:48:59.089Z,28.20
2018-08-20T13:51:27.474Z,28.30
2018-08-20T13:53:55.798Z,28.10
2018-08-20T13:56:24.120Z,28.30
2018-08-20T13:58:52.458Z,28.40
2018-08-20T14:01:20.829Z,28.50
2018-08-20T14:03:49.165Z,28.80
2018-08-20T14:06:17.598Z,29.00
2018-08-20T14:08:46.547Z,29.30
2018-08-20T14:11:14.910Z,29.60
2018-08-20T14:13:43.259Z,29.80
2018-08-20T14:16:11.640Z,29.70
2018-08-20T14:18:39.977Z,29.70
2018-08-20T14:21:16.637Z,30.20
2018-08-20T14:23:47.367Z,30.60
2018-08-20T14:26:15.775Z,31.00
2018-08-20T14:28:44.220Z,31.60
2018-08-20T14:31:12.678Z,30.80
2018-08-20T14:33:41.116Z,30.40
2018-08-20T14:36:10.651Z,29.70
2018-08-20T14:38:39.632Z,29.50
2018-08-20T14:41:08.727Z,29.60
2018-08-20T14:43:37.163Z,29.80
2018-08-20T14:46:11.490Z,30.20
2018-08-20T14:48:39.885Z,30.30
2018-08-20T14:51:08.483Z,30.40
2018-08-20T14:53:36.847Z,29.80
2018-08-20T14:56:05.323Z,29.20
2018-08-20T14:58:33.833Z,29.10
2018-08-20T15:01:02.643Z,29.20
2018-08-20T15:03:31.049Z,29.30
2018-08-20T15:05:59.385Z,29.30
2018-08-20T15:08:27.752Z,29.30
2018-08-20T15:10:56.347Z,29.20
2018-08-20T15:13:24.727Z,28.90
2018-08-20T15:15:53.091Z,29.00
2018-08-20T15:18:21.457Z,29.10
2018-08-20T15:20:49.774Z,29.20
2018-08-20T15:23:18.729Z,29.30
2018-08-20T15:25:47.113Z,29.40
2018-08-20T15:28:15.499Z,29.50
2018-08-20T15:30:44.538Z,29.60
2018-08-20T15:33:13.541Z,29.60
2018-08-20T15:35:41.899Z,29.60
2018-08-20T15:38:10.320Z,29.60
2018-08-20T15:40:38.633Z,29.50
2018-08-20T15:43:07.014Z,29.30
2018-08-20T15:45:35.921Z,29.10
2018-08-20T15:48:04.314Z,29.10
2018-08-20T15:50:32.789Z,29.00
2018-08-20T15:53:01.700Z,29.10
2018-08-20T15:55:30.197Z,29.00
2018-08-20T15:57:58.552Z,28.90
2018-08-20T16:00:27.031Z,28.60
2018-08-20T16:02:55.352Z,28.40
2018-08-20T16:05:23.781Z,28.40
2018-08-20T16:07:52.238Z,28.50
2018-08-20T16:10:20.667Z,28.50
2018-08-20T16:12:49.206Z,28.40
2018-08-20T16:15:17.583Z,28.30
2018-08-20T16:17:45.905Z,28.20
2018-08-20T16:20:14.810Z,28.10
2018-08-20T16:22:43.199Z,28.10
2018-08-20T16:25:11.521Z,27.90
2018-08-20T16:27:39.889Z,27.90
2018-08-20T16:30:10.639Z,27.80
2018-08-20T16:32:39.495Z,27.80
2018-08-20T16:35:09.290Z,27.50
2018-08-20T16:37:37.672Z,27.50
2018-08-20T16:40:07.346Z,27.40
2018-08-20T16:42:35.817Z,27.50
2018-08-20T16:45:04.801Z,27.30
2018-08-20T16:47:33.173Z,27.30
2018-08-20T16:50:01.593Z,27.20
2018-08-20T16:52:30.011Z,27.40
2018-08-20T16:54:58.381Z,27.40
2018-08-20T16:57:26.772Z,27.40
2018-08-20T16:59:55.155Z,27.40
2018-08-20T17:02:28.088Z,27.40
2018-08-20T17:04:56.639Z,27.20
2018-08-20T17:07:24.990Z,27.10
2018-08-20T17:09:53.438Z,27.00
2018-08-20T17:12:21.907Z,27.00
2018-08-20T17:14:50.357Z,26.90
2018-08-20T17:17:18.685Z,26.80
2018-08-20T17:19:47.141Z,26.70
2018-08-20T17:22:15.673Z,26.70
2018-08-20T17:24:44.111Z,26.60
2018-08-20T17:27:12.702Z,26.60
2018-08-20T17:29:41.106Z,26.50
2018-08-20T17:32:10.065Z,26.50
2018-08-20T17:34:39.623Z,26.30
2018-08-20T17:37:08.058Z,26.10
2018-08-20T17:39:50.651Z,26.20
2018-08-20T17:42:19.054Z,26.20
2018-08-20T17:44:47.375Z,26.20
2018-08-20T17:47:20.027Z,26.20
2018-08-20T17:49:48.446Z,26.20
2018-08-20T17:52:16.884Z,26.10
2018-08-20T17:54:45.327Z,26.10
2018-08-20T17:57:13.790Z,26.10
2018-08-20T17:59:42.179Z,26.00
2018-08-20T18:02:18.796Z,25.90
2018-08-20T18:04:49.042Z,25.90
2018-08-20T18:07:17.425Z,25.80
2018-08-20T18:09:45.826Z,25.70
2018-08-20T18:12:14.244Z,25.60
2018-08-20T18:14:42.795Z,25.50
2018-08-20T18:17:11.295Z,25.50
2018-08-20T18:19:39.584Z,25.40
2018-08-20T18:22:08.043Z,25.30
2018-08-20T18:24:36.457Z,25.20
2018-08-20T18:27:04.874Z,25.20
2018-08-20T18:29:33.316Z,25.20
2018-08-20T18:32:02.950Z,25.20
2018-08-20T18:34:31.360Z,25.10
2018-08-20T18:37:02.501Z,25.10
2018-08-20T18:39:30.982Z,25.00
2018-08-20T18:42:03.557Z,24.90
2018-08-20T18:44:31.989Z,24.90
2018-08-20T18:47:00.749Z,24.80
2018-08-20T18:49:29.272Z,24.80
2018-08-20T18:52:04.258Z,24.80
2018-08-20T18:54:38.442Z,24.70
2018-08-20T18:57:07.233Z,24.60
2018-08-20T18:59:38.026Z,24.70
2018-08-20T19:02:07.804Z,24.60
2018-08-20T19:04:41.481Z,24.60
2018-08-20T19:07:11.173Z,24.60
2018-08-20T19:09:40.433Z,24.60
2018-08-20T19:12:09.254Z,24.60
2018-08-20T19:14:37.745Z,24.50
2018-08-20T19:17:14.192Z,24.40
2018-08-20T19:19:48.306Z,24.30
2018-08-20T19:22:22.240Z,24.30
2018-08-20T19:24:50.686Z,24.20
2018-08-20T19:27:19.191Z,24.20
2018-08-20T19:29:47.620Z,24.10
2018-08-20T19:32:16.050Z,24.20
2018-08-20T19:34:44.438Z,24.30
2018-08-20T19:37:12.938Z,24.30
2018-08-20T19:39:41.548Z,24.30
2018-08-20T19:42:13.856Z,24.40
2018-08-20T19:44:42.664Z,24.40
2018-08-20T19:47:11.072Z,24.50
2018-08-20T19:49:39.527Z,24.40
2018-08-20T19:52:07.981Z,24.50
2018-08-20T19:54:36.399Z,24.50
2018-08-20T19:57:05.050Z,24.50
2018-08-20T19:59:37.676Z,24.40
2018-08-20T20:02:10.378Z,24.50
2018-08-20T20:04:38.825Z,24.50
2018-08-20T20:07:07.423Z,24.50
2018-08-20T20:09:36.516Z,24.50
2018-08-20T20:12:05.173Z,24.40
2018-08-20T20:14:38.859Z,24.40
2018-08-20T20:17:07.267Z,24.40
2018-08-20T20:19:35.734Z,24.40
2018-08-20T20:22:04.157Z,24.20
2018-08-20T20:24:32.566Z,24.40
2018-08-20T20:27:00.957Z,24.40
2018-08-20T20:29:29.350Z,24.40
2018-08-20T20:31:57.712Z,24.30
2018-08-20T20:34:26.071Z,24.30
2018-08-20T20:36:54.483Z,24.40
2018-08-20T20:39:22.930Z,24.40
2018-08-20T20:41:51.303Z,24.40
2018-08-20T20:44:20.229Z,24.40
2018-08-20T20:46:48.611Z,24.40
2018-08-20T20:49:16.976Z,24.30
2018-08-20T20:51:45.487Z,24.30
2018-08-20T20:54:13.873Z,24.30
2018-08-20T20:56:42.339Z,24.30
2018-08-20T20:59:10.776Z,24.10
2018-08-20T21:01:39.209Z,24.20
2018-08-20T21:04:08.676Z,24.20
2018-08-20T21:06:39.980Z,24.10
2018-08-20T21:09:12.373Z,24.00
2018-08-20T21:11:41.262Z,24.00
2018-08-20T21:14:09.730Z,24.00
2018-08-20T21:16:38.156Z,24.00
2018-08-20T21:19:07.842Z,23.90
2018-08-20T21:21:36.306Z,23.80
2018-08-20T21:24:06.249Z,23.80
2018-08-20T21:26:34.763Z,23.80
2018-08-20T21:29:03.174Z,23.80
2018-08-20T21:31:37.101Z,23.70
2018-08-20T21:34:05.469Z,23.70
2018-08-20T21:36:33.818Z,23.80
2018-08-20T21:39:02.749Z,23.80
2018-08-20T21:41:31.090Z,23.80
2018-08-20T21:43:59.434Z,23.80
2018-08-20T21:46:27.826Z,23.80
2018-08-20T21:48:56.234Z,23.80
2018-08-20T21:51:30.131Z,23.70
2018-08-20T21:53:58.858Z,23.70
2018-08-20T21:56:38.605Z,23.60
2018-08-20T21:59:07.129Z,23.60
2018-08-20T22:01:35.510Z,23.60
2018-08-20T22:04:08.120Z,23.70
2018-08-20T22:06:37.104Z,23.70
2018-08-20T22:09:06.377Z,23.60
2018-08-20T22:11:35.303Z,23.60
2018-08-20T22:14:03.734Z,23.60
2018-08-20T22:16:32.194Z,23.60
2018-08-20T22:19:00.622Z,23.60
2018-08-20T22:21:28.958Z,23.60
2018-08-20T22:23:58.238Z,23.70
2018-08-20T22:26:26.814Z,23.60
2018-08-20T22:28:55.276Z,23.60
2018-08-20T22:31:24.223Z,23.50
2018-08-20T22:33:58.724Z,23.50
2018-08-20T22:36:28.326Z,23.50
2018-08-20T22:38:59.408Z,23.50
2018-08-20T22:41:29.690Z,23.60
2018-08-20T22:43:58.063Z,23.60
2018-08-20T22:46:26.747Z,23.60
2018-08-20T22:48:57.855Z,23.60
2018-08-20T22:51:27.476Z,23.60
2018-08-20T22:54:00.627Z,23.50
2018-08-20T22:56:33.841Z,23.50
2018-08-20T22:59:06.061Z,23.40
2018-08-20T23:01:34.523Z,23.40
2018-08-20T23:04:02.944Z,23.40
2018-08-20T23:06:31.423Z,23.40
2018-08-20T23:09:04.256Z,23.50
2018-08-20T23:11:41.164Z,23.40
2018-08-20T23:14:11.148Z,23.30
2018-08-20T23:16:39.789Z,23.10
2018-08-20T23:19:08.841Z,23.20
2018-08-20T23:21:40.861Z,23.20
2018-08-20T23:24:09.841Z,23.20
2018-08-20T23:26:38.202Z,23.30
2018-08-20T23:29:06.610Z,23.30
2018-08-20T23:31:34.989Z,23.30
2018-08-20T23:34:03.418Z,23.30
2018-08-20T23:39:08.760Z,23.40
2018-08-20T23:41:37.253Z,23.40
2018-08-20T23:44:05.725Z,23.40
2018-08-20T23:46:38.503Z,23.30
2018-08-20T23:49:06.889Z,23.30
2018-08-20T23:51:35.344Z,23.30
2018-08-20T23:54:03.754Z,23.30
2018-08-20T23:56:32.198Z,23.30
2018-08-20T23:59:00.694Z,23.30
